createdAt,value
2022-09-04T00:00:15.643Z,99934.34
2022-09-04T00:03:19.154Z,99957.81
2022-09-04T00:06:02.336Z,99948.06
2022-09-04T00:09:07.808Z,99970.00
2022-09-04T00:12:05.106Z,99890.06
2022-09-04T00:14:51.677Z,99984.69
2022-09-04T00:17:37.478Z,99884.22
2022-09-04T00:20:22.033Z,99924.44
2022-09-04T00:23:12.452Z,99949.88
2022-09-04T00:25:57.703Z,99987.44
2022-09-04T00:29:06.130Z,99984.91
2022-09-04T00:32:12.226Z,99978.28
2022-09-04T00:35:25.198Z,99990.47
2022-09-04T00:38:37.110Z,99981.91
2022-09-04T00:42:03.193Z,99981.88
2022-09-04T00:45:20.878Z,99986.81
2022-09-04T00:48:16.795Z,99991.84
2022-09-04T00:51:16.873Z,99993.88
2022-09-04T00:54:30.656Z,100001.28
2022-09-04T00:57:25.605Z,99997.09
2022-09-04T01:00:16.656Z,99932.00
2022-09-04T01:03:19.372Z,99944.50
2022-09-04T01:06:19.827Z,99939.88
2022-09-04T01:09:07.442Z,100003.75
2022-09-04T01:12:06.130Z,99988.34
2022-09-04T01:15:26.107Z,99998.69
2022-09-04T01:18:00.106Z,99993.38
2022-09-04T01:21:01.640Z,99994.47
2022-09-04T01:24:07.878Z,99996.28
2022-09-04T01:26:59.424Z,99944.16
2022-09-04T01:30:09.467Z,100000.84
2022-09-04T01:33:13.444Z,99999.97
2022-09-04T01:35:56.123Z,100002.75
2022-09-04T01:38:51.876Z,100004.72
2022-09-04T01:41:38.209Z,100000.69
2022-09-04T01:44:11.583Z,99931.84
2022-09-04T01:47:14.997Z,100001.22
2022-09-04T01:50:11.273Z,100002.88
2022-09-04T01:53:18.824Z,99975.56
2022-09-04T01:56:05.581Z,100000.25
2022-09-04T01:58:45.361Z,100006.75
2022-09-04T02:02:06.909Z,100005.91
2022-09-04T02:05:05.078Z,99976.28
2022-09-04T02:08:21.505Z,99997.84
2022-09-04T02:11:13.546Z,99975.78
2022-09-04T02:13:56.620Z,99997.56
2022-09-04T02:17:08.426Z,99955.44
2022-09-04T02:20:12.396Z,100005.66
2022-09-04T02:23:18.192Z,99989.47
2022-09-04T02:26:01.154Z,99995.22
2022-09-04T02:28:50.981Z,100000.50
2022-09-04T02:31:35.379Z,100015.28
2022-09-04T02:34:14.734Z,99986.97
2022-09-04T02:36:50.211Z,100008.31
2022-09-04T02:39:36.314Z,100018.75
2022-09-04T02:42:22.130Z,100025.75
2022-09-04T02:45:34.627Z,100034.50
2022-09-04T02:48:47.197Z,100016.66
2022-09-04T02:51:48.327Z,100011.59
2022-09-04T02:55:18.318Z,100016.53
2022-09-04T02:58:07.960Z,99964.91
2022-09-04T03:01:22.167Z,100019.09
2022-09-04T03:04:32.626Z,100021.09
2022-09-04T03:07:29.534Z,100017.50
2022-09-04T03:10:24.779Z,99965.63
2022-09-04T03:13:38.682Z,100022.78
2022-09-04T03:16:53.804Z,100032.94
2022-09-04T03:20:00.426Z,100024.16
2022-09-04T03:22:44.089Z,100034.72
2022-09-04T03:25:37.092Z,100036.13
2022-09-04T03:28:12.840Z,100032.84
2022-09-04T03:30:43.007Z,100041.19
2022-09-04T03:33:35.033Z,99988.03
2022-09-04T03:36:12.334Z,100022.88
2022-09-04T03:38:48.926Z,100041.13
2022-09-04T03:41:42.828Z,99991.34
2022-09-04T03:44:37.489Z,100034.63
2022-09-04T03:47:15.438Z,100036.25
2022-09-04T03:50:13.837Z,100025.63
2022-09-04T03:53:24.890Z,100030.00
2022-09-04T03:56:34.287Z,100022.59
2022-09-04T03:59:06.151Z,100025.97
2022-09-04T04:01:53.318Z,100024.56
2022-09-04T04:04:47.001Z,100026.53
2022-09-04T04:07:35.721Z,100041.75
2022-09-04T04:10:25.799Z,100038.84
2022-09-04T04:13:37.012Z,100045.81
2022-09-04T04:16:41.159Z,100039.59
2022-09-04T04:19:17.991Z,100040.41
2022-09-04T04:22:30.094Z,100045.81
2022-09-04T04:25:25.356Z,100049.19
2022-09-04T04:28:48.351Z,100052.59
2022-09-04T04:31:37.197Z,99971.06
2022-09-04T04:34:41.459Z,100006.06
2022-09-04T04:37:43.689Z,100009.47
2022-09-04T04:41:00.352Z,100060.84
2022-09-04T04:44:17.628Z,100058.47
2022-09-04T04:47:27.705Z,100063.41
2022-09-04T04:50:22.648Z,100065.84
2022-09-04T04:53:14.955Z,100076.81
2022-09-04T04:55:56.006Z,100077.56
2022-09-04T04:59:20.898Z,100077.78
2022-09-04T05:02:09.533Z,100091.28
2022-09-04T05:05:13.725Z,100077.09
2022-09-04T05:08:16.714Z,100082.09
2022-09-04T05:11:05.576Z,99993.25
2022-09-04T05:14:01.269Z,100080.69
2022-09-04T05:17:06.785Z,100094.88
2022-09-04T05:20:26.079Z,100079.31
2022-09-04T05:23:13.016Z,100081.84
2022-09-04T05:26:17.226Z,100085.78
2022-09-04T05:29:01.806Z,100086.31
2022-09-04T05:31:58.479Z,100086.50
2022-09-04T05:35:02.390Z,100049.06
2022-09-04T05:38:06.288Z,100078.09
2022-09-04T05:40:58.933Z,100090.44
2022-09-04T05:43:32.555Z,100097.31
2022-09-04T05:46:13.572Z,100096.31
2022-09-04T05:49:09.132Z,100099.94
2022-09-04T05:52:09.213Z,100093.72
2022-09-04T05:55:16.251Z,100105.19
2022-09-04T05:58:42.099Z,100095.63
2022-09-04T06:01:36.353Z,100102.75
2022-09-04T06:05:09.460Z,100100.38
2022-09-04T06:08:15.774Z,100094.31
2022-09-04T06:10:59.684Z,100103.63
2022-09-04T06:14:08.298Z,100102.22
2022-09-04T06:17:10.431Z,100099.44
2022-09-04T06:20:03.176Z,100101.69
2022-09-04T06:22:52.783Z,100109.13
2022-09-04T06:26:02.926Z,100065.66
2022-09-04T06:29:07.330Z,100108.78
2022-09-04T06:32:29.940Z,100110.31
2022-09-04T06:35:08.141Z,100107.81
2022-09-04T06:38:30.726Z,100102.44
2022-09-04T06:41:31.571Z,100097.53
2022-09-04T06:44:29.086Z,100097.88
2022-09-04T06:47:16.998Z,100108.78
2022-09-04T06:50:45.354Z,100115.50
2022-09-04T06:53:58.020Z,100107.91
2022-09-04T06:56:46.175Z,100102.53
2022-09-04T06:59:30.657Z,100064.06
2022-09-04T07:02:38.687Z,100108.19
2022-09-04T07:05:28.799Z,100124.81
2022-09-04T07:08:30.676Z,100078.66
2022-09-04T07:11:24.629Z,100118.38
2022-09-04T07:14:20.581Z,100120.38
2022-09-04T07:17:36.967Z,100122.94
2022-09-04T07:20:22.818Z,100119.03
2022-09-04T07:23:27.320Z,100106.44
2022-09-04T07:26:37.329Z,100117.97
2022-09-04T07:29:42.101Z,100122.38
2022-09-04T07:32:40.301Z,100117.75
2022-09-04T07:35:21.581Z,100079.88
2022-09-04T07:38:33.743Z,100126.13
2022-09-04T07:41:44.656Z,100127.91
2022-09-04T07:44:29.806Z,100137.38
2022-09-04T07:47:20.882Z,100125.31
2022-09-04T07:50:11.302Z,100072.69
2022-09-04T07:53:03.666Z,100134.44
2022-09-04T07:55:48.585Z,100093.72
2022-09-04T07:58:55.507Z,100133.31
2022-09-04T08:01:54.916Z,100138.22
2022-09-04T08:04:33.435Z,100140.91
2022-09-04T08:07:10.777Z,100132.25
2022-09-04T08:10:26.589Z,100139.72
2022-09-04T08:13:14.264Z,100105.25
2022-09-04T08:16:33.018Z,100124.56
2022-09-04T08:19:11.592Z,100134.91
2022-09-04T08:21:47.390Z,100127.66
2022-09-04T08:24:58.355Z,100113.94
2022-09-04T08:27:50.285Z,100127.78
2022-09-04T08:30:21.868Z,100127.84
2022-09-04T08:32:59.167Z,100136.38
2022-09-04T08:35:41.171Z,100133.84
2022-09-04T08:38:46.232Z,100132.53
2022-09-04T08:41:29.187Z,100121.66
2022-09-04T08:44:32.821Z,100127.38
2022-09-04T08:47:17.932Z,100130.66
2022-09-04T08:50:13.353Z,100132.91
2022-09-04T08:53:11.834Z,100125.41
2022-09-04T08:56:18.981Z,100131.97
2022-09-04T08:59:01.863Z,100135.44
2022-09-04T09:02:31.203Z,100130.34
2022-09-04T09:05:14.898Z,100087.75
2022-09-04T09:08:57.470Z,100117.66
2022-09-04T09:11:41.417Z,100121.81
2022-09-04T09:15:06.321Z,100127.53
2022-09-04T09:17:57.050Z,100120.84
2022-09-04T09:21:08.890Z,100127.31
2022-09-04T09:24:24.327Z,100131.06
2022-09-04T09:27:13.832Z,100119.41
2022-09-04T09:30:21.104Z,100122.78
2022-09-04T09:33:44.041Z,100116.44
2022-09-04T09:36:37.120Z,100125.63
2022-09-04T09:39:31.123Z,100112.88
2022-09-04T09:42:48.551Z,100114.81
2022-09-04T09:45:55.102Z,100110.28
2022-09-04T09:49:00.848Z,100125.00
2022-09-04T09:52:25.168Z,100121.72
2022-09-04T09:55:45.790Z,100119.72
2022-09-04T09:58:55.536Z,100124.16
2022-09-04T10:01:26.426Z,100129.50
2022-09-04T10:04:12.200Z,100124.44
2022-09-04T10:07:11.404Z,100124.41
2022-09-04T10:10:24.734Z,100120.41
2022-09-04T10:13:35.370Z,100125.69
2022-09-04T10:16:24.957Z,100122.56
2022-09-04T10:19:19.198Z,100116.53
2022-09-04T10:22:26.162Z,100108.75
2022-09-04T10:25:09.903Z,100116.94
2022-09-04T10:27:47.042Z,100117.75
2022-09-04T10:30:21.525Z,100071.31
2022-09-04T10:33:10.723Z,100114.16
2022-09-04T10:36:04.870Z,100080.41
2022-09-04T10:39:09.439Z,100121.06
2022-09-04T10:42:29.262Z,100080.91
2022-09-04T10:45:27.612Z,100123.13
2022-09-04T10:48:17.739Z,100124.03
2022-09-04T10:51:28.324Z,100117.69
2022-09-04T10:54:30.550Z,100120.25
2022-09-04T10:57:37.539Z,100130.25
2022-09-04T11:00:14.208Z,100122.88
2022-09-04T11:03:30.516Z,100126.91
2022-09-04T11:06:49.448Z,100115.72
2022-09-04T11:09:39.400Z,100123.63
2022-09-04T11:13:00.226Z,100105.25
2022-09-04T11:15:28.400Z,100125.13
2022-09-04T11:18:22.420Z,100117.41
2022-09-04T11:21:21.975Z,100124.47
2022-09-04T11:24:26.982Z,100086.97
2022-09-04T11:27:22.813Z,100122.69
2022-09-04T11:29:54.694Z,100124.38
2022-09-04T11:32:53.126Z,100124.91
2022-09-04T11:36:23.799Z,100119.19
2022-09-04T11:39:03.425Z,100117.69
2022-09-04T11:42:21.394Z,100119.44
2022-09-04T11:45:16.896Z,100114.72
2022-09-04T11:48:09.886Z,100114.94
2022-09-04T11:51:09.767Z,100113.72
2022-09-04T11:53:44.415Z,100109.38
2022-09-04T11:56:25.897Z,100103.97
2022-09-04T11:59:04.370Z,100113.09
2022-09-04T12:01:32.298Z,100111.72
2022-09-04T12:04:12.138Z,100108.78
2022-09-04T12:07:09.180Z,100110.25
2022-09-04T12:10:21.222Z,100108.19
2022-09-04T12:13:31.128Z,100107.09
2022-09-04T12:16:18.606Z,100102.72
2022-09-04T12:18:58.648Z,100105.56
2022-09-04T12:22:09.127Z,100063.25
2022-09-04T12:25:03.294Z,100114.41
2022-09-04T12:28:18.607Z,100114.84
2022-09-04T12:30:56.511Z,100119.22
2022-09-04T12:34:05.501Z,100113.72
2022-09-04T12:36:47.696Z,100095.88
2022-09-04T12:40:01.575Z,100101.53
2022-09-04T12:43:01.111Z,100098.06
2022-09-04T12:46:00.674Z,100055.59
2022-09-04T12:48:55.976Z,100048.69
2022-09-04T12:51:25.386Z,100063.75
2022-09-04T12:54:13.564Z,100109.19
2022-09-04T12:56:53.778Z,100103.06
2022-09-04T12:59:36.161Z,100091.78
2022-09-04T13:02:13.251Z,100095.22
2022-09-04T13:05:22.205Z,100102.03
2022-09-04T13:08:18.991Z,100025.34
2022-09-04T13:11:25.976Z,100092.69
2022-09-04T13:14:39.680Z,100090.63
2022-09-04T13:17:43.844Z,100091.88
2022-09-04T13:20:48.641Z,100100.97
2022-09-04T13:24:19.827Z,100095.88
2022-09-04T13:27:16.352Z,100059.38
2022-09-04T13:30:22.159Z,100080.31
2022-09-04T13:33:39.974Z,100070.09
2022-09-04T13:36:32.590Z,100052.84
2022-09-04T13:39:18.804Z,100087.63
2022-09-04T13:42:14.587Z,100089.50
2022-09-04T13:45:26.935Z,100074.31
2022-09-04T13:48:33.208Z,100055.13
2022-09-04T13:51:20.270Z,100088.97
2022-09-04T13:54:07.611Z,100050.72
2022-09-04T13:56:49.875Z,100096.44
2022-09-04T13:59:21.032Z,100094.13
2022-09-04T14:01:56.406Z,100097.31
2022-09-04T14:04:44.374Z,100090.22
2022-09-04T14:07:36.255Z,100097.84
2022-09-04T14:10:21.488Z,100098.84
2022-09-04T14:13:25.804Z,100102.31
2022-09-04T14:16:07.026Z,100048.72
2022-09-04T14:19:15.580Z,100049.75
2022-09-04T14:22:24.311Z,100089.59
2022-09-04T14:25:16.032Z,100091.66
2022-09-04T14:28:15.249Z,100093.13
2022-09-04T14:31:34.130Z,100087.09
2022-09-04T14:34:40.030Z,100096.00
2022-09-04T14:37:46.577Z,100091.81
2022-09-04T14:40:34.558Z,100084.69
2022-09-04T14:43:44.823Z,100007.53
2022-09-04T14:46:27.409Z,100010.31
2022-09-04T14:49:25.264Z,100043.63
2022-09-04T14:51:56.984Z,100079.53
2022-09-04T14:54:33.445Z,100080.19
2022-09-04T14:57:40.381Z,100081.41
2022-09-04T15:00:21.066Z,100071.84
2022-09-04T15:03:21.519Z,100069.75
2022-09-04T15:05:57.892Z,100067.22
2022-09-04T15:08:35.689Z,100078.69
2022-09-04T15:11:10.634Z,100044.94
2022-09-04T15:13:52.586Z,100087.28
2022-09-04T15:16:31.971Z,100060.78
2022-09-04T15:19:38.769Z,100038.69
2022-09-04T15:22:54.009Z,100078.53
2022-09-04T15:25:59.605Z,100084.38
2022-09-04T15:28:53.430Z,100076.06
2022-09-04T15:31:46.853Z,100078.75
2022-09-04T15:34:26.056Z,100078.53
2022-09-04T15:37:08.369Z,100074.78
2022-09-04T15:39:46.149Z,100080.56
2022-09-04T15:42:46.263Z,100078.72
2022-09-04T15:45:45.037Z,100077.44
2022-09-04T15:48:56.934Z,100072.22
2022-09-04T15:51:37.642Z,100078.06
2022-09-04T15:54:15.677Z,100082.63
2022-09-04T15:57:17.509Z,100082.59
2022-09-04T15:59:56.721Z,100036.66
2022-09-04T16:03:09.251Z,100075.69
2022-09-04T16:05:49.348Z,100067.09
2022-09-04T16:08:26.494Z,100089.59
2022-09-04T16:11:28.586Z,100094.63
2022-09-04T16:14:11.943Z,100047.59
2022-09-04T16:16:54.835Z,100051.16
2022-09-04T16:19:27.963Z,100076.16
2022-09-04T16:22:25.926Z,100088.03
2022-09-04T16:25:47.833Z,100092.31
2022-09-04T16:28:46.687Z,100093.25
2022-09-04T16:31:30.319Z,100040.13
2022-09-04T16:34:11.828Z,100082.25
2022-09-04T16:36:48.660Z,100052.50
2022-09-04T16:39:47.376Z,100035.28
2022-09-04T16:42:51.710Z,100092.53
2022-09-04T16:45:30.770Z,100054.94
2022-09-04T16:48:12.697Z,100090.84
2022-09-04T16:51:41.067Z,100090.03
2022-09-04T16:54:31.996Z,100105.31
2022-09-04T16:57:21.887Z,100092.88
2022-09-04T17:00:14.951Z,100012.09
2022-09-04T17:03:03.909Z,100091.88
2022-09-04T17:05:51.763Z,100091.63
2022-09-04T17:08:40.299Z,100108.34
2022-09-04T17:11:26.853Z,100065.97
2022-09-04T17:14:22.316Z,100111.41
2022-09-04T17:17:31.331Z,100112.75
2022-09-04T17:20:21.260Z,100115.31
2022-09-04T17:29:02.429Z,100115.56
2022-09-04T17:29:14.175Z,100120.69
2022-09-04T17:29:49.385Z,100120.13
2022-09-04T17:37:42.034Z,100135.72
2022-09-04T17:40:36.302Z,100125.00
2022-09-04T17:40:47.088Z,100135.66
2022-09-04T17:42:27.007Z,100124.00
2022-09-04T17:45:28.988Z,100146.56
2022-09-04T17:48:30.091Z,100140.09
2022-09-04T17:51:02.197Z,100112.81
2022-09-04T17:53:34.942Z,100140.06
2022-09-04T17:56:37.104Z,100155.31
2022-09-04T17:59:29.981Z,100158.53
2022-09-04T18:02:27.109Z,100165.00
2022-09-04T18:05:11.859Z,100184.69
2022-09-04T18:08:30.357Z,100128.88
2022-09-04T18:11:18.229Z,100181.78
2022-09-04T18:14:15.457Z,100188.69
2022-09-04T18:17:12.612Z,100139.56
2022-09-04T18:20:00.875Z,100181.34
2022-09-04T18:22:56.562Z,100182.06
2022-09-04T18:25:49.018Z,100181.06
2022-09-04T18:28:50.762Z,100125.88
2022-09-04T18:37:07.302Z,100189.88
2022-09-04T18:37:21.858Z,100190.03
2022-09-04T18:37:59.695Z,100199.63
2022-09-04T18:45:07.214Z,100164.88
2022-09-04T18:50:22.758Z,100189.69
2022-09-04T18:50:44.272Z,100198.44
2022-09-04T18:50:53.391Z,100201.44
2022-09-04T18:52:43.703Z,100176.94
2022-09-04T18:55:24.290Z,100178.81
2022-09-04T18:58:02.025Z,100125.91
2022-09-04T19:00:56.854Z,100212.06
2022-09-04T19:03:55.241Z,100213.91
2022-09-04T19:07:07.167Z,100215.06
2022-09-04T19:09:56.711Z,100216.75
2022-09-04T19:12:47.087Z,100197.09
2022-09-04T19:15:45.071Z,100214.56
2022-09-04T19:18:45.575Z,100217.56
2022-09-04T19:21:57.857Z,100213.56
2022-09-04T19:24:47.198Z,100148.53
2022-09-04T19:27:33.399Z,100219.22
2022-09-04T19:30:18.681Z,100214.53
2022-09-04T19:33:39.754Z,100211.34
2022-09-04T19:36:32.477Z,100222.44
2022-09-04T19:45:54.911Z,100213.69
2022-09-04T19:46:02.353Z,100229.47
2022-09-04T19:46:29.767Z,100232.47
2022-09-04T19:52:10.558Z,100226.38
2022-09-04T19:53:33.024Z,100229.97
2022-09-04T19:56:16.046Z,100235.47
2022-09-04T19:59:22.712Z,100229.91
2022-09-04T20:01:58.128Z,100243.16
2022-09-04T20:04:49.604Z,100230.06
2022-09-04T20:07:58.509Z,100227.47
2022-09-04T20:11:01.252Z,100241.06
2022-09-04T20:14:11.408Z,100234.69
2022-09-04T20:17:10.004Z,100241.56
2022-09-04T20:19:54.637Z,100242.06
2022-09-04T20:22:45.563Z,100155.31
2022-09-04T20:25:58.555Z,100245.38
2022-09-04T20:29:03.197Z,100245.72
2022-09-04T20:31:57.064Z,100241.66
2022-09-04T20:34:53.059Z,100242.94
2022-09-04T20:37:38.945Z,100250.78
2022-09-04T20:40:37.362Z,100249.66
2022-09-04T20:43:08.250Z,100253.31
2022-09-04T20:52:46.018Z,100256.66
2022-09-04T20:52:55.269Z,100256.66
2022-09-04T20:52:59.846Z,100260.00
2022-09-04T20:55:37.290Z,100235.91
2022-09-04T21:03:14.204Z,100267.38
2022-09-04T21:03:19.029Z,100272.38
2022-09-04T21:05:40.576Z,100273.00
2022-09-04T21:08:54.076Z,100274.97
2022-09-04T21:11:47.732Z,100273.47
2022-09-04T21:14:45.779Z,100278.31
2022-09-04T21:17:34.717Z,100264.53
2022-09-04T21:20:29.474Z,100208.25
2022-09-04T21:23:12.564Z,100302.00
2022-09-04T21:25:59.102Z,100256.22
2022-09-04T21:29:10.749Z,100284.66
2022-09-04T21:32:10.046Z,100295.53
2022-09-04T21:35:15.175Z,100287.81
2022-09-04T21:37:50.227Z,100289.66
2022-09-04T21:40:52.686Z,100286.16
2022-09-04T21:44:18.112Z,100280.25
2022-09-04T21:47:16.905Z,100274.53
2022-09-04T21:50:34.538Z,100268.34
2022-09-04T21:53:53.359Z,100283.28
2022-09-04T22:00:28.943Z,100283.28
2022-09-04T22:02:39.896Z,100285.44
2022-09-04T22:03:02.451Z,100294.00
2022-09-04T22:06:03.830Z,100276.75
2022-09-04T22:13:29.799Z,100272.16
2022-09-04T22:13:40.330Z,100293.03
2022-09-04T22:15:02.970Z,100285.31
2022-09-04T22:18:10.184Z,100288.13
2022-09-04T22:21:06.090Z,100288.28
2022-09-04T22:24:13.524Z,100298.16
2022-09-04T22:27:08.667Z,100306.03
2022-09-04T22:30:03.240Z,100291.13
2022-09-04T22:33:04.100Z,100291.72
2022-09-04T22:36:13.613Z,100297.13
2022-09-04T22:39:54.392Z,100287.09
2022-09-04T22:42:47.665Z,100293.31
2022-09-04T22:45:53.325Z,100299.06
2022-09-04T22:48:30.176Z,100304.72
2022-09-04T22:51:07.162Z,100291.63
2022-09-04T22:54:24.234Z,100247.59
2022-09-04T22:57:06.680Z,100296.91
2022-09-04T23:00:15.543Z,100305.34
2022-09-04T23:03:10.184Z,100296.25
2022-09-04T23:06:16.207Z,100310.59
2022-09-04T23:13:53.602Z,100317.09
2022-09-04T23:13:58.563Z,100319.06
2022-09-04T23:15:50.963Z,100320.16
2022-09-04T23:24:34.348Z,100322.81
2022-09-04T23:26:44.407Z,100224.13
2022-09-04T23:26:49.805Z,100322.56
2022-09-04T23:28:27.803Z,100310.31
2022-09-04T23:31:33.601Z,100296.56
2022-09-04T23:34:13.273Z,100310.63
2022-09-04T23:37:21.544Z,100324.41
2022-09-04T23:40:19.608Z,100314.72
2022-09-04T23:43:09.486Z,100319.38
2022-09-04T23:46:23.854Z,100319.78
2022-09-04T23:49:27.051Z,100318.22
2022-09-04T23:52:15.817Z,100323.47
2022-09-04T23:55:15.803Z,100291.00
2022-09-04T23:58:22.952Z,100329.22
